Bedford, PA

6:45 AM EST on February 11, 2016 (GMT -0500)
Lakewood Manor | | Change Station
CLOSE
Current Station
Personal Weather Station
Location: Bedford, PA
Elevation: 1178 ft
Nearby Weather Stations

Elev 1178 ft 40.04 °N, 78.52 °W | Updated 12 minutes ago

Overcast
Overcast
12.4 °F
Feels Like 12 °F
N
1.1
Wind Variable Wind from NNW

Today
High -- | Low -- °F
--% Chance of Precip.
Yesterday
High -- | Low -- °F
Precip. -- in
Pressure 29.95 in
Visibility 5.0 miles
Clouds Mostly Cloudy 3200 ft
Overcast 4200 ft
Windchill 12 °F
Dew Point 9 °F
Humidity 85%
Rainfall 0.00 in
Snow Depth Not available.
7:12 AM 5:44 PM
Waxing Crescent, 11% visible
METAR KHMZ 111135Z AUTO 30012G18KT 5SM -SN BKN032 OVC042 M10/M15 A2995 RMK AO2 T11011150
Pressure 29.95 in
Visibility 5.0 miles
Clouds Mostly Cloudy 3200 ft
Overcast 4200 ft
Windchill 12 °F
Dew Point 9 °F
Humidity 85%
Rainfall 0.00 in
Snow Depth Not available.
7:12 AM 5:44 PM
Waxing Crescent, 11% visible
METAR KHMZ 111135Z AUTO 30012G18KT 5SM -SN BKN032 OVC042 M10/M15 A2995 RMK AO2 T11011150

10-Day Weather Forecast

Almanac

Astronomy

Feb. 11, 2016 Rise Set
Actual Time
Civil Twilight
Nautical Twilight
Astronomical Twilight
Moon
Length of Visible Light
Length of Day
Tomorrow will be .
, % of the Moon is Illuminated

Today's Extremes

State Highs State Lows

Community

WunderPhotos

Upload Photos

1,892,030 photos uploaded!

WunderBlog® & News

Nearby

Air Quality

  Air Quality AQ Index Pollutant
Not available.

Snow Depth

Station Depth Elevation

Earthquake Activity

City Distance Mag. Time & Date
Minimum magnitude displayed is 2.5.

Coastal Water Temperatures

Place Temperature

Stations

Nearby Weather Stations

Station Location Temp. Windchill Dew Point Humidity Wind Precip. Elev Updated Type
                   

Watches & Warnings

There are currently no watches in effect.